createdAt,value
2019-02-17T00:01:37.725Z,-0.10
2019-02-17T00:04:06.615Z,-0.10
2019-02-17T00:06:35.507Z,-0.10
2019-02-17T00:09:07.675Z,-0.20
2019-02-17T00:11:36.565Z,-0.20
2019-02-17T00:14:05.458Z,-0.20
2019-02-17T00:16:34.349Z,-0.20
2019-02-17T00:19:03.217Z,-0.20
2019-02-17T00:21:32.132Z,-0.20
2019-02-17T00:24:01.022Z,-0.20
2019-02-17T00:26:29.915Z,-0.10
2019-02-17T00:28:59.752Z,-0.10
2019-02-17T00:31:29.027Z,-0.10
2019-02-17T00:33:57.895Z,-0.10
2019-02-17T00:36:26.912Z,-0.10
2019-02-17T00:38:55.803Z,0.00
2019-02-17T00:41:25.786Z,0.00
2019-02-17T00:43:54.711Z,0.00
2019-02-17T00:46:23.603Z,0.00
2019-02-17T00:48:52.495Z,0.00
2019-02-17T00:51:21.386Z,0.00
2019-02-17T00:53:50.278Z,-0.10
2019-02-17T00:56:19.168Z,-0.10
2019-02-17T00:58:48.060Z,-0.10
2019-02-17T01:01:16.956Z,-0.10
2019-02-17T01:03:45.819Z,-0.10
2019-02-17T01:06:14.839Z,-0.20
2019-02-17T01:08:43.729Z,-0.30
2019-02-17T01:11:12.620Z,-0.30
2019-02-17T01:13:41.615Z,-0.30
2019-02-17T01:16:10.506Z,-0.30
2019-02-17T01:18:39.371Z,-0.40
2019-02-17T01:21:08.288Z,-0.40
2019-02-17T01:23:37.280Z,-0.40
2019-02-17T01:26:06.173Z,-0.50
2019-02-17T01:28:35.062Z,-0.50
2019-02-17T01:31:03.954Z,-0.50
2019-02-17T01:33:33.964Z,-0.50
2019-02-17T01:36:02.866Z,-0.50
2019-02-17T01:38:31.730Z,-0.50
2019-02-17T01:41:00.646Z,-0.60
2019-02-17T01:43:29.539Z,-0.60
2019-02-17T01:45:58.427Z,-0.60
2019-02-17T01:48:27.320Z,-0.70
2019-02-17T01:50:56.215Z,-0.70
2019-02-17T01:53:25.101Z,-0.70
2019-02-17T01:55:55.078Z,-0.80
2019-02-17T01:58:24.009Z,-0.80
2019-02-17T02:00:52.900Z,-0.80
2019-02-17T02:03:21.791Z,-0.80
2019-02-17T02:05:50.683Z,-0.80
2019-02-17T02:08:19.551Z,-0.80
2019-02-17T02:10:48.440Z,-0.80
2019-02-17T02:13:17.357Z,-0.80
2019-02-17T02:15:46.247Z,-0.80
2019-02-17T02:18:15.138Z,-0.80
2019-02-17T02:20:44.029Z,-0.90
2019-02-17T02:23:12.920Z,-0.90
2019-02-17T02:25:41.774Z,-0.90
2019-02-17T02:28:10.643Z,-0.90
2019-02-17T02:30:39.975Z,-0.90
2019-02-17T02:33:08.947Z,-0.90
2019-02-17T02:35:37.815Z,-0.80
2019-02-17T02:38:06.642Z,-0.80
2019-02-17T02:40:35.516Z,-0.80
2019-02-17T02:43:04.382Z,-0.80
2019-02-17T02:45:33.220Z,-0.80
2019-02-17T02:48:02.086Z,-0.80
2019-02-17T02:50:30.959Z,-0.80
2019-02-17T02:52:59.798Z,-0.80
2019-02-17T02:55:28.666Z,-0.80
2019-02-17T02:57:57.537Z,-0.90
2019-02-17T03:00:26.368Z,-0.90
2019-02-17T03:02:55.242Z,-0.90
2019-02-17T03:05:24.103Z,-0.90
2019-02-17T03:07:52.926Z,-0.90
2019-02-17T03:10:21.798Z,-1.00
2019-02-17T03:12:50.663Z,-1.00
2019-02-17T03:15:19.499Z,-1.00
2019-02-17T03:17:48.362Z,-1.00
2019-02-17T03:20:17.231Z,-1.10
2019-02-17T03:22:46.073Z,-1.10
2019-02-17T03:25:14.931Z,-1.10
2019-02-17T03:27:43.804Z,-1.10
2019-02-17T03:30:12.631Z,-1.10
2019-02-17T03:32:41.499Z,-1.10
2019-02-17T03:35:10.375Z,-1.20
2019-02-17T03:37:39.202Z,-1.20
2019-02-17T03:40:09.362Z,-1.20
2019-02-17T03:42:38.238Z,-1.20
2019-02-17T03:45:09.672Z,-1.30
2019-02-17T03:47:38.540Z,-1.30
2019-02-17T03:50:07.902Z,-1.30
2019-02-17T03:52:36.841Z,-1.30
2019-02-17T03:55:05.922Z,-1.40
2019-02-17T03:57:34.789Z,-1.40
2019-02-17T04:00:16.086Z,-1.40
2019-02-17T04:02:35.015Z,-1.40
2019-02-17T04:05:04.334Z,-1.40
2019-02-17T04:07:33.225Z,-1.50
2019-02-17T04:10:02.117Z,-1.50
2019-02-17T04:12:31.009Z,-1.50
2019-02-17T04:14:59.870Z,-1.50
2019-02-17T04:17:28.997Z,-1.60
2019-02-17T04:19:57.989Z,-1.60
2019-02-17T04:22:26.858Z,-1.60
2019-02-17T04:24:55.771Z,-1.60
2019-02-17T04:27:24.665Z,-1.60
2019-02-17T04:29:53.551Z,-1.60
2019-02-17T04:32:22.419Z,-1.60
2019-02-17T04:34:51.313Z,-1.60
2019-02-17T04:37:20.226Z,-1.60
2019-02-17T04:39:49.120Z,-1.60
2019-02-17T04:42:18.010Z,-1.60
2019-02-17T04:44:46.900Z,-1.70
2019-02-17T04:47:15.767Z,-1.70
2019-02-17T04:49:44.659Z,-1.70
2019-02-17T04:52:13.573Z,-1.70
2019-02-17T04:54:42.465Z,-1.70
2019-02-17T04:57:11.356Z,-1.70
2019-02-17T04:59:40.247Z,-1.70
2019-02-17T05:02:09.139Z,-1.70
2019-02-17T05:04:38.030Z,-1.70
2019-02-17T05:07:06.920Z,-1.80
2019-02-17T05:09:36.902Z,-1.80
2019-02-17T05:12:05.932Z,-1.80
2019-02-17T05:14:34.801Z,-1.80
2019-02-17T05:17:03.713Z,-1.80
2019-02-17T05:19:32.578Z,-1.80
2019-02-17T05:22:01.504Z,-1.80
2019-02-17T05:24:30.387Z,-1.80
2019-02-17T05:26:59.280Z,-1.80
2019-02-17T05:29:28.171Z,-1.80
2019-02-17T05:31:57.062Z,-1.90
2019-02-17T05:34:25.956Z,-1.90
2019-02-17T05:36:54.844Z,-1.90
2019-02-17T05:39:25.493Z,-1.90
2019-02-17T05:41:54.469Z,-1.90
2019-02-17T05:44:23.361Z,-1.90
2019-02-17T05:46:52.253Z,-1.90
2019-02-17T05:49:21.142Z,-1.90
2019-02-17T05:51:50.008Z,-1.90
2019-02-17T05:54:18.926Z,-2.00
2019-02-17T05:56:47.817Z,-2.00
2019-02-17T06:02:45.606Z,-2.00
2019-02-17T06:05:14.702Z,-2.10
2019-02-17T06:07:43.597Z,-2.10
2019-02-17T06:10:12.485Z,-2.10
2019-02-17T06:12:41.478Z,-2.10
2019-02-17T06:15:10.370Z,-2.10
2019-02-17T06:17:41.208Z,-2.20
2019-02-17T06:20:11.402Z,-2.20
2019-02-17T06:22:40.321Z,-2.20
2019-02-17T06:25:09.215Z,-2.20
2019-02-17T06:27:38.079Z,-2.30
2019-02-17T06:30:09.059Z,-2.30
2019-02-17T06:32:38.137Z,-2.20
2019-02-17T06:35:07.845Z,-2.20
2019-02-17T06:37:36.742Z,-2.20
2019-02-17T06:40:07.360Z,-2.20
2019-02-17T06:42:36.262Z,-2.20
2019-02-17T06:45:06.908Z,-2.20
2019-02-17T06:47:35.990Z,-2.20
2019-02-17T06:50:06.281Z,-2.20
2019-02-17T06:52:35.206Z,-2.20
2019-02-17T06:55:15.263Z,-2.20
2019-02-17T06:57:44.252Z,-2.20
2019-02-17T07:00:14.756Z,-2.20
2019-02-17T07:02:43.673Z,-2.20
2019-02-17T07:05:30.486Z,-2.20
2019-02-17T07:07:59.478Z,-2.10
2019-02-17T07:10:28.471Z,-2.10
2019-02-17T07:12:57.364Z,-2.10
2019-02-17T07:15:26.361Z,-2.10
2019-02-17T07:17:55.452Z,-2.00
2019-02-17T07:20:24.355Z,-2.00
2019-02-17T07:22:53.234Z,-1.90
2019-02-17T07:28:51.511Z,-1.80
2019-02-17T07:31:22.503Z,-1.70
2019-02-17T07:33:50.935Z,-1.60
2019-02-17T07:36:21.958Z,-1.50
2019-02-17T07:38:50.481Z,-1.40
2019-02-17T07:41:19.372Z,-1.20
2019-02-17T07:43:48.238Z,-1.00
2019-02-17T07:46:17.259Z,-0.90
2019-02-17T07:48:46.151Z,-0.60
2019-02-17T07:51:15.245Z,-0.40
2019-02-17T07:53:44.345Z,-0.20
2019-02-17T07:56:13.335Z,0.00
2019-02-17T07:58:42.326Z,0.20
2019-02-17T08:01:11.321Z,0.50
2019-02-17T08:03:40.211Z,0.70
2019-02-17T08:06:09.208Z,0.90
2019-02-17T08:08:38.097Z,1.10
2019-02-17T08:11:06.988Z,1.40
2019-02-17T08:13:35.826Z,1.50
2019-02-17T08:16:44.604Z,1.70
2019-02-17T08:19:13.471Z,2.00
2019-02-17T08:21:42.387Z,2.20
2019-02-17T08:24:11.485Z,2.40
2019-02-17T08:26:40.376Z,2.60
2019-02-17T08:29:09.367Z,2.70
2019-02-17T08:31:38.463Z,2.90
2019-02-17T08:34:07.456Z,3.00
2019-02-17T08:36:36.452Z,3.20
2019-02-17T08:39:06.342Z,3.30
2019-02-17T08:41:35.439Z,3.50
2019-02-17T08:44:04.559Z,3.60
2019-02-17T08:46:33.450Z,3.70
2019-02-17T08:49:02.443Z,3.80
2019-02-17T08:51:31.655Z,3.90
2019-02-17T08:54:00.533Z,4.00
2019-02-17T08:56:29.503Z,4.10
2019-02-17T08:58:58.418Z,4.30
2019-02-17T09:01:27.376Z,4.40
2019-02-17T09:03:56.404Z,4.60
2019-02-17T09:06:27.214Z,4.80
2019-02-17T09:08:55.765Z,5.00
2019-02-17T09:11:24.648Z,5.20
2019-02-17T09:13:53.532Z,5.50
2019-02-17T09:16:22.380Z,5.70
2019-02-17T09:18:51.271Z,5.90
2019-02-17T09:21:20.159Z,6.10
2019-02-17T09:23:49.003Z,6.30
2019-02-17T09:26:17.904Z,6.40
2019-02-17T09:28:46.796Z,6.60
2019-02-17T09:31:15.651Z,6.70
2019-02-17T09:33:44.535Z,6.80
2019-02-17T09:36:13.416Z,6.80
2019-02-17T09:38:42.283Z,6.80
2019-02-17T09:41:11.155Z,6.80
2019-02-17T09:43:40.041Z,6.80
2019-02-17T09:46:08.968Z,6.80
2019-02-17T09:48:38.085Z,6.90
2019-02-17T09:51:07.079Z,6.80
2019-02-17T09:53:35.946Z,6.90
2019-02-17T09:56:05.064Z,6.90
2019-02-17T09:58:35.004Z,6.90
2019-02-17T10:01:04.077Z,6.90
2019-02-17T10:03:32.968Z,6.90
2019-02-17T10:06:01.968Z,6.90
2019-02-17T10:08:30.853Z,6.90
2019-02-17T10:10:59.745Z,6.90
2019-02-17T10:13:28.738Z,7.00
2019-02-17T10:15:57.612Z,7.10
2019-02-17T10:18:26.621Z,7.10
2019-02-17T10:20:55.591Z,7.20
2019-02-17T10:23:24.485Z,7.40
2019-02-17T10:25:53.400Z,7.50
2019-02-17T10:28:22.291Z,7.60
2019-02-17T10:30:51.181Z,7.70
2019-02-17T10:33:20.174Z,7.90
2019-02-17T10:35:49.374Z,8.00
2019-02-17T10:38:18.265Z,8.10
2019-02-17T10:40:47.338Z,8.30
2019-02-17T10:43:16.252Z,8.40
2019-02-17T10:45:45.143Z,8.50
2019-02-17T10:48:14.033Z,8.70
2019-02-17T10:50:42.925Z,8.80
2019-02-17T10:53:11.820Z,9.00
2019-02-17T10:55:40.810Z,9.10
2019-02-17T10:58:09.804Z,9.30
2019-02-17T11:00:38.679Z,9.40
2019-02-17T11:03:08.610Z,9.60
2019-02-17T11:05:37.706Z,9.70
2019-02-17T11:08:06.590Z,9.90
2019-02-17T11:10:35.462Z,10.10
2019-02-17T11:13:04.365Z,10.20
2019-02-17T11:15:33.316Z,10.40
2019-02-17T11:18:02.195Z,10.60
2019-02-17T11:20:31.071Z,10.70
2019-02-17T11:22:59.906Z,10.80
2019-02-17T11:25:28.781Z,11.00
2019-02-17T11:27:57.647Z,11.00
2019-02-17T11:30:26.483Z,11.20
2019-02-17T11:32:58.238Z,11.30
2019-02-17T11:35:25.870Z,11.40
2019-02-17T11:37:54.704Z,11.40
2019-02-17T11:40:23.574Z,11.40
2019-02-17T11:42:52.447Z,11.60
2019-02-17T11:45:21.279Z,11.70
2019-02-17T11:47:50.139Z,11.70
2019-02-17T11:50:19.025Z,11.80
2019-02-17T11:52:48.024Z,11.90
2019-02-17T11:55:17.094Z,12.00
2019-02-17T11:57:45.909Z,12.10
2019-02-17T12:00:17.518Z,12.20
2019-02-17T12:02:46.399Z,12.20
2019-02-17T12:05:15.272Z,12.30
2019-02-17T12:07:44.098Z,12.40
2019-02-17T12:10:13.076Z,12.50
2019-02-17T12:12:41.950Z,12.60
2019-02-17T12:15:12.907Z,12.60
2019-02-17T12:17:41.754Z,12.70
2019-02-17T12:20:26.998Z,12.80
2019-02-17T12:22:58.253Z,12.90
2019-02-17T12:25:28.691Z,12.90
2019-02-17T12:27:59.100Z,13.10
2019-02-17T12:30:27.966Z,13.20
2019-02-17T12:32:56.840Z,13.30
2019-02-17T12:35:25.668Z,13.40
2019-02-17T12:37:54.535Z,13.50
2019-02-17T12:40:23.411Z,13.60
2019-02-17T12:42:52.247Z,13.70
2019-02-17T12:45:21.115Z,13.70
2019-02-17T12:47:57.519Z,13.80
2019-02-17T12:50:20.470Z,13.90
2019-02-17T12:52:49.330Z,14.00
2019-02-17T12:55:18.207Z,14.00
2019-02-17T12:57:47.034Z,14.10
2019-02-17T13:00:17.711Z,14.20
2019-02-17T13:02:46.579Z,14.20
2019-02-17T13:05:15.411Z,14.30
2019-02-17T13:07:44.316Z,14.30
2019-02-17T13:10:13.376Z,14.40
2019-02-17T13:12:42.200Z,14.40
2019-02-17T13:15:12.877Z,14.40
2019-02-17T13:17:41.746Z,14.50
2019-02-17T13:20:12.474Z,14.60
2019-02-17T13:22:41.342Z,14.60
2019-02-17T13:25:13.181Z,14.60
2019-02-17T13:27:44.654Z,14.60
2019-02-17T13:30:22.052Z,14.70
2019-02-17T13:32:50.903Z,14.90
2019-02-17T13:35:19.779Z,15.00
2019-02-17T13:37:48.623Z,15.10
2019-02-17T13:40:17.501Z,15.20
2019-02-17T13:42:46.398Z,15.20
2019-02-17T13:45:16.326Z,15.20
2019-02-17T13:47:45.202Z,15.20
2019-02-17T13:50:15.379Z,15.20
2019-02-17T13:52:44.212Z,15.20
2019-02-17T13:55:13.075Z,15.30
2019-02-17T13:57:42.166Z,15.40
2019-02-17T14:00:13.887Z,15.40
2019-02-17T14:02:42.762Z,15.50
2019-02-17T14:05:11.723Z,15.50
2019-02-17T14:07:40.565Z,15.50
2019-02-17T14:10:11.336Z,15.50
2019-02-17T14:12:40.324Z,15.50
2019-02-17T14:15:17.462Z,15.50
2019-02-17T14:17:46.349Z,15.50
2019-02-17T14:20:15.167Z,15.50
2019-02-17T14:22:44.047Z,15.50
2019-02-17T14:25:13.027Z,15.50
2019-02-17T14:27:41.859Z,15.50
2019-02-17T14:30:12.827Z,15.50
2019-02-17T14:32:41.705Z,15.60
2019-02-17T14:35:10.539Z,15.60
2019-02-17T14:37:39.445Z,15.60
2019-02-17T14:40:12.871Z,15.60
2019-02-17T14:42:41.764Z,15.50
2019-02-17T14:45:17.316Z,15.50
2019-02-17T14:47:46.186Z,15.40
2019-02-17T14:50:15.068Z,15.30
2019-02-17T14:52:43.891Z,15.30
2019-02-17T14:55:13.264Z,15.30
2019-02-17T14:57:42.139Z,15.20
2019-02-17T15:00:15.338Z,15.20
2019-02-17T15:02:44.196Z,15.20
2019-02-17T15:05:13.126Z,15.10
2019-02-17T15:07:41.994Z,15.00
2019-02-17T15:10:12.164Z,15.00
2019-02-17T15:12:40.994Z,14.90
2019-02-17T15:15:11.672Z,14.80
2019-02-17T15:17:40.545Z,14.70
2019-02-17T15:20:17.960Z,14.60
2019-02-17T15:22:46.834Z,14.60
2019-02-17T15:25:15.753Z,14.50
2019-02-17T15:27:45.489Z,14.40
2019-02-17T15:30:17.779Z,14.30
2019-02-17T15:32:46.451Z,14.30
2019-02-17T15:35:15.317Z,14.30
2019-02-17T15:37:44.285Z,14.20
2019-02-17T15:40:14.425Z,14.20
2019-02-17T15:42:43.548Z,14.20
2019-02-17T15:45:13.783Z,14.10
2019-02-17T15:47:42.606Z,14.00
2019-02-17T15:50:12.785Z,14.00
2019-02-17T15:52:41.652Z,13.90
2019-02-17T15:55:12.551Z,13.80
2019-02-17T15:57:41.420Z,13.70
2019-02-17T16:00:17.947Z,13.60
2019-02-17T16:02:46.819Z,13.50
2019-02-17T16:05:15.719Z,13.40
2019-02-17T16:07:44.510Z,13.30
2019-02-17T16:10:15.556Z,13.10
2019-02-17T16:12:44.424Z,13.00
2019-02-17T16:15:24.199Z,12.90
2019-02-17T16:17:53.085Z,12.60
2019-02-17T16:20:21.910Z,12.40
2019-02-17T16:22:50.782Z,12.30
2019-02-17T16:25:19.650Z,12.10
2019-02-17T16:27:48.499Z,11.80
2019-02-17T16:30:21.860Z,11.60
2019-02-17T16:32:50.740Z,11.40
2019-02-17T16:35:19.604Z,11.20
2019-02-17T16:37:48.461Z,11.00
2019-02-17T16:40:18.336Z,10.80
2019-02-17T16:42:47.254Z,10.60
2019-02-17T16:45:16.141Z,10.40
2019-02-17T16:47:51.928Z,10.30
2019-02-17T16:50:25.439Z,10.10
2019-02-17T16:52:54.303Z,9.90
2019-02-17T16:55:23.182Z,9.80
2019-02-17T16:57:52.040Z,9.60
2019-02-17T17:00:25.211Z,9.40
2019-02-17T17:02:57.454Z,9.30
2019-02-17T17:05:26.393Z,9.10
2019-02-17T17:07:58.510Z,9.00
2019-02-17T17:10:27.320Z,8.80
2019-02-17T17:12:56.415Z,8.70
2019-02-17T17:15:25.326Z,8.60
2019-02-17T17:17:54.153Z,8.40
2019-02-17T17:20:34.283Z,8.30
2019-02-17T17:23:05.160Z,8.20
2019-02-17T17:25:33.650Z,8.00
2019-02-17T17:28:02.724Z,7.90
2019-02-17T17:30:31.775Z,7.80
2019-02-17T17:33:04.754Z,7.70
2019-02-17T17:35:36.467Z,7.60
2019-02-17T17:38:05.336Z,7.40
2019-02-17T17:40:36.008Z,7.30
2019-02-17T17:43:21.071Z,7.20
2019-02-17T17:46:14.175Z,7.10
2019-02-17T17:48:43.598Z,7.00
2019-02-17T17:51:18.574Z,6.90
2019-02-17T17:53:47.439Z,6.80
2019-02-17T17:56:16.259Z,6.70
2019-02-17T17:58:45.175Z,6.60
2019-02-17T18:01:14.035Z,6.50
2019-02-17T18:03:42.859Z,6.40
2019-02-17T18:06:11.732Z,6.30
2019-02-17T18:08:40.603Z,6.30
2019-02-17T18:11:09.435Z,6.10
2019-02-17T18:13:38.295Z,6.10
2019-02-17T18:16:07.162Z,5.90
2019-02-17T18:18:35.988Z,5.90
2019-02-17T18:21:04.853Z,5.80
2019-02-17T18:23:33.705Z,5.70
2019-02-17T18:26:02.530Z,5.60
2019-02-17T18:28:31.403Z,5.60
2019-02-17T18:31:00.264Z,5.50
2019-02-17T18:33:29.093Z,5.50
2019-02-17T18:35:57.967Z,5.40
2019-02-17T18:38:26.856Z,5.40
2019-02-17T18:40:55.658Z,5.30
2019-02-17T18:43:24.523Z,5.30
2019-02-17T18:45:53.388Z,5.20
2019-02-17T18:48:22.206Z,5.20
2019-02-17T18:50:58.918Z,5.20
2019-02-17T18:53:21.596Z,5.20
2019-02-17T18:55:50.419Z,5.10
2019-02-17T18:58:19.292Z,5.10
2019-02-17T19:00:51.001Z,5.00
2019-02-17T19:03:19.823Z,5.00
2019-02-17T19:05:48.685Z,5.00
2019-02-17T19:08:17.546Z,4.90
2019-02-17T19:10:46.371Z,4.90
2019-02-17T19:13:15.235Z,4.90
2019-02-17T19:15:44.096Z,4.80
2019-02-17T19:18:12.935Z,4.80
2019-02-17T19:20:41.805Z,4.80
2019-02-17T19:23:10.666Z,4.70
2019-02-17T19:25:39.508Z,4.70
2019-02-17T19:28:08.462Z,4.60
2019-02-17T19:30:37.331Z,4.50
2019-02-17T19:33:06.156Z,4.40
2019-02-17T19:35:41.460Z,4.40
2019-02-17T19:38:05.527Z,4.30
2019-02-17T19:40:34.356Z,4.30
2019-02-17T19:43:03.645Z,4.20
2019-02-17T19:45:32.611Z,4.20
2019-02-17T19:48:01.447Z,4.10
2019-02-17T19:50:30.352Z,4.10
2019-02-17T19:52:59.195Z,4.00
2019-02-17T19:55:28.026Z,4.00
2019-02-17T19:57:56.887Z,3.90
2019-02-17T20:00:25.754Z,3.80
2019-02-17T20:03:07.818Z,3.80
2019-02-17T20:05:38.259Z,3.70
2019-02-17T20:08:07.084Z,3.60
2019-02-17T20:10:36.069Z,3.60
2019-02-17T20:13:04.977Z,3.50
2019-02-17T20:15:34.962Z,3.50
2019-02-17T20:18:03.919Z,3.40
2019-02-17T20:20:32.775Z,3.30
2019-02-17T20:23:01.819Z,3.30
2019-02-17T20:25:30.690Z,3.20
2019-02-17T20:27:59.580Z,3.20
2019-02-17T20:30:28.419Z,3.10
2019-02-17T20:32:57.269Z,3.10
2019-02-17T20:35:26.143Z,3.00
2019-02-17T20:37:54.986Z,2.90
2019-02-17T20:40:23.845Z,2.90
2019-02-17T20:42:52.784Z,2.80
2019-02-17T20:45:21.703Z,2.80
2019-02-17T20:47:51.058Z,2.70
2019-02-17T20:50:20.287Z,2.70
2019-02-17T20:52:49.151Z,2.60
2019-02-17T20:55:18.017Z,2.60
2019-02-17T20:57:47.753Z,2.60
2019-02-17T21:00:18.822Z,2.50
2019-02-17T21:02:47.655Z,2.40
2019-02-17T21:05:16.478Z,2.40
2019-02-17T21:07:45.358Z,2.30
2019-02-17T21:10:15.775Z,2.20
2019-02-17T21:12:44.608Z,2.20
2019-02-17T21:15:18.608Z,2.20
2019-02-17T21:17:47.477Z,2.10
2019-02-17T21:20:17.824Z,2.10
2019-02-17T21:22:46.695Z,2.00
2019-02-17T21:25:15.656Z,2.00
2019-02-17T21:27:44.522Z,1.90
2019-02-17T21:30:15.488Z,1.90
2019-02-17T21:32:44.355Z,1.90
2019-02-17T21:35:14.592Z,1.80
2019-02-17T21:37:43.454Z,1.80
2019-02-17T21:40:13.018Z,1.70
2019-02-17T21:42:41.860Z,1.70
2019-02-17T21:45:12.232Z,1.60
2019-02-17T21:47:41.331Z,1.60
2019-02-17T21:50:16.578Z,1.50
2019-02-17T21:52:45.463Z,1.50
2019-02-17T21:55:15.264Z,1.40
2019-02-17T21:57:44.145Z,1.40
2019-02-17T22:00:16.895Z,1.40
2019-02-17T22:02:45.747Z,1.40
2019-02-17T22:05:14.849Z,1.40
2019-02-17T22:07:44.123Z,1.30
2019-02-17T22:10:20.158Z,1.30
2019-02-17T22:12:51.122Z,1.20
2019-02-17T22:15:21.245Z,1.20
2019-02-17T22:17:50.087Z,1.10
2019-02-17T22:20:18.959Z,1.10
2019-02-17T22:22:47.787Z,1.10
2019-02-17T22:25:16.655Z,1.10
2019-02-17T22:27:45.536Z,1.00
2019-02-17T22:30:15.456Z,1.00
2019-02-17T22:32:44.337Z,0.90
2019-02-17T22:35:13.206Z,0.80
2019-02-17T22:37:42.043Z,0.80
2019-02-17T22:40:12.295Z,0.80
2019-02-17T22:42:41.160Z,0.80
2019-02-17T22:45:11.498Z,0.70
2019-02-17T22:47:40.368Z,0.70
2019-02-17T22:50:14.579Z,0.60
2019-02-17T22:52:44.654Z,0.60
2019-02-17T22:55:14.318Z,0.60
2019-02-17T22:57:43.139Z,0.60
2019-02-17T23:00:28.590Z,0.60
2019-02-17T23:02:57.464Z,0.60
2019-02-17T23:05:26.299Z,0.60
2019-02-17T23:07:55.158Z,0.60
2019-02-17T23:10:24.043Z,0.70
2019-02-17T23:12:52.867Z,0.70
2019-02-17T23:15:21.732Z,0.80
2019-02-17T23:17:50.602Z,0.80
2019-02-17T23:20:19.431Z,0.80
2019-02-17T23:22:48.298Z,0.90
2019-02-17T23:25:17.473Z,0.80
2019-02-17T23:27:47.065Z,0.80
2019-02-17T23:30:15.979Z,0.70
2019-02-17T23:32:44.869Z,0.70
2019-02-17T23:35:13.731Z,0.70
2019-02-17T23:37:42.835Z,0.60
2019-02-17T23:40:12.699Z,0.60
2019-02-17T23:42:41.560Z,0.50
2019-02-17T23:45:14.120Z,0.50
2019-02-17T23:47:43.003Z,0.50
2019-02-17T23:50:13.281Z,0.50
2019-02-17T23:52:42.787Z,0.40
2019-02-17T23:55:12.262Z,0.40
2019-02-17T23:57:41.759Z,0.30
